Time;durP1;ratioP1;P1;durP2;ratioP2;P2;SDS_P1;SDS_P2;PMS_P1;PMS_P2;Temp;Humidity;BMP_temperature;BMP_pressure;BME280_temperature;BME280_humidity;BME280_pressure;Samples;Min_cycle;Max_cycle;Signal;HPM_P1;HPM_P2
2022/06/22 00:00:04;;;;;;;0.20;0.00;;;21.10;99.90;;;;;;21236455;28;20225;-71
2022/06/22 00:10:14;;;;;;;0.20;0.00;;;21.00;99.90;;;;;;21233632;28;20282;-72
2022/06/22 00:20:24;;;;;;;0.20;0.00;;;21.20;99.90;;;;;;21217605;28;20218;-72
2022/06/22 00:30:30;;;;;;;0.20;0.00;;;21.30;99.90;;;;;;21232395;28;20238;-71
2022/06/22 00:40:37;;;;;;;0.20;0.00;;;21.30;99.90;;;;;;21232542;28;20215;-72
2022/06/22 00:50:44;;;;;;;0.20;0.00;;;21.40;99.90;;;;;;21230795;28;20207;-73
2022/06/22 01:01:00;;;;;;;0.20;0.00;;;21.20;99.90;;;;;;21229529;28;20203;-73
2022/06/22 01:12:16;;;;;;;0.20;0.00;;;21.30;99.90;;;;;;21229438;28;20223;-71
2022/06/22 01:21:41;;;;;;;0.20;0.00;;;21.20;99.90;;;;;;21229236;28;20247;-71
2022/06/22 01:32:00;;;;;;;0.20;0.00;;;21.30;99.90;;;;;;21228106;28;20223;-71
2022/06/22 01:42:09;;;;;;;0.20;0.00;;;21.30;99.90;;;;;;21227648;28;20206;-72
2022/06/22 01:52:25;;;;;;;0.20;0.00;;;21.40;99.90;;;;;;21226103;28;20239;-72
2022/06/22 02:02:34;;;;;;;0.20;0.00;;;21.40;99.90;;;;;;21225420;28;20213;-71
2022/06/22 02:12:46;;;;;;;0.20;0.00;;;21.20;99.90;;;;;;21224890;28;20253;-72
2022/06/22 02:22:52;;;;;;;0.20;0.00;;;21.30;99.90;;;;;;21223594;28;20238;-72
2022/06/22 02:32:57;;;;;;;0.20;0.00;;;21.20;99.90;;;;;;21233069;28;20207;-71
2022/06/22 02:53:28;;;;;;;0.20;0.00;;;21.10;99.90;;;;;;21242255;28;20227;-72
2022/06/22 03:03:34;;;;;;;0.20;0.00;;;21.10;99.90;;;;;;21238052;28;20717;-72
2022/06/22 03:13:42;;;;;;;0.20;0.10;;;21.00;99.90;;;;;;21240178;28;20227;-71
2022/06/22 03:23:52;;;;;;;0.20;0.00;;;21.20;99.90;;;;;;21239387;28;20284;-73
2022/06/22 03:34:02;;;;;;;0.20;0.00;;;21.50;99.90;;;;;;21237328;28;20286;-73
2022/06/22 03:44:10;;;;;;;0.20;0.00;;;21.50;99.90;;;;;;21235020;28;20198;-72
2022/06/22 03:54:19;;;;;;;0.20;0.00;;;21.50;99.90;;;;;;21236454;28;20280;-70
2022/06/22 04:04:24;;;;;;;0.20;0.00;;;21.60;99.90;;;;;;21235543;28;20219;-71
2022/06/22 04:14:36;;;;;;;0.20;0.00;;;21.50;99.90;;;;;;21235056;28;20329;-72
2022/06/22 04:24:47;;;;;;;0.20;0.00;;;21.50;99.90;;;;;;21234354;28;20238;-73
2022/06/22 04:34:59;;;;;;;0.20;0.00;;;21.50;99.90;;;;;;21230431;28;20238;-72
2022/06/22 04:45:05;;;;;;;0.20;0.00;;;21.50;99.90;;;;;;21232456;28;20222;-72
2022/06/22 04:55:16;;;;;;;0.20;0.00;;;21.50;99.90;;;;;;21229608;28;20241;-72
2022/06/22 05:05:23;;;;;;;0.20;0.10;;;21.60;99.90;;;;;;21229754;28;20217;-71
2022/06/22 05:15:32;;;;;;;0.20;0.00;;;21.80;99.90;;;;;;21226728;28;20307;-71
2022/06/22 05:25:37;;;;;;;0.20;0.00;;;21.90;99.90;;;;;;21228088;28;20211;-71
2022/06/22 05:35:46;;;;;;;0.20;0.00;;;22.10;99.90;;;;;;21223350;28;20314;-70
2022/06/22 05:45:55;;;;;;;0.20;0.00;;;22.20;99.90;;;;;;21226303;28;20215;-71
2022/06/22 05:56:18;;;;;;;0.20;0.00;;;22.50;99.90;;;;;;21222911;28;20299;-71
2022/06/22 06:06:26;;;;;;;0.20;0.00;;;22.80;99.90;;;;;;21220633;28;20183;-71
2022/06/22 06:16:43;;;;;;;0.20;0.00;;;23.40;99.90;;;;;;21221545;28;20239;-70
2022/06/22 06:37:21;;;;;;;0.20;0.10;;;24.00;99.90;;;;;;21202396;28;20254;-69
2022/06/22 06:47:28;;;;;;;0.20;0.00;;;24.20;99.90;;;;;;21218039;28;20237;-71
2022/06/22 06:57:34;;;;;;;0.20;0.10;;;24.60;99.90;;;;;;21200118;28;20196;-69
2022/06/22 07:07:42;;;;;;;0.20;0.10;;;25.20;99.90;;;;;;21216704;28;20234;-70
2022/06/22 07:17:52;;;;;;;0.20;0.00;;;24.70;99.90;;;;;;21219875;28;20247;-68
2022/06/22 07:28:00;;;;;;;0.20;0.10;;;24.20;99.90;;;;;;21234402;28;20239;-70
2022/06/22 07:38:13;;;;;;;0.20;0.00;;;23.90;99.90;;;;;;21232648;28;20192;-71
2022/06/22 07:48:20;;;;;;;0.20;0.00;;;24.00;99.90;;;;;;21229919;28;20242;-70
2022/06/22 07:58:30;;;;;;;0.20;0.00;;;23.50;99.90;;;;;;21233150;27;20200;-69
2022/06/22 08:08:38;;;;;;;0.20;0.00;;;23.50;99.90;;;;;;21229164;28;20222;-70
2022/06/22 08:18:44;;;;;;;0.20;0.00;;;23.70;99.90;;;;;;21227444;28;20315;-71
2022/06/22 08:28:50;;;;;;;0.20;0.00;;;23.50;99.90;;;;;;21228846;28;20223;-69
2022/06/22 08:39:02;;;;;;;0.20;0.00;;;23.40;99.90;;;;;;21227438;28;20187;-70
2022/06/22 08:49:35;;;;;;;0.20;0.00;;;23.60;99.90;;;;;;21226699;28;20242;-71
2022/06/22 09:00:09;;;;;;;0.20;0.00;;;23.10;99.90;;;;;;21225794;28;20191;-70
2022/06/22 09:10:36;;;;;;;0.20;0.00;;;23.00;99.90;;;;;;21208560;28;20207;-69
2022/06/22 09:20:55;;;;;;;0.20;0.00;;;22.60;99.90;;;;;;21224857;28;20227;-72
2022/06/22 09:31:18;;;;;;;0.20;0.00;;;22.90;99.90;;;;;;21223450;28;20203;-70
2022/06/22 09:41:36;;;;;;;0.20;0.00;;;23.70;99.90;;;;;;21220674;28;20217;-71
2022/06/22 09:52:16;;;;;;;0.20;0.00;;;24.00;99.90;;;;;;21219925;28;20251;-71
2022/06/22 10:02:37;;;;;;;0.20;0.10;;;23.90;99.90;;;;;;21219292;28;20218;-71
2022/06/22 10:13:05;;;;;;;0.20;0.00;;;24.60;99.90;;;;;;21219826;28;20286;-72
2022/06/22 10:23:22;;;;;;;0.20;0.00;;;24.70;99.90;;;;;;21221483;28;20219;-70
2022/06/22 10:33:49;;;;;;;0.20;0.00;;;25.10;99.90;;;;;;21218077;28;20271;-72
2022/06/22 10:55:13;;;;;;;0.20;0.00;;;26.30;99.90;;;;;;21229981;28;20223;-72
2022/06/22 11:05:43;;;;;;;0.20;0.00;;;24.90;99.90;;;;;;21233791;28;20226;-71
2022/06/22 11:16:22;;;;;;;0.20;0.08;;;24.60;99.90;;;;;;21233368;28;20235;-71
2022/06/22 11:37:09;;;;;;;0.20;0.00;;;24.80;99.90;;;;;;21231569;28;20257;-71
2022/06/22 11:47:55;;;;;;;0.20;0.00;;;24.90;99.90;;;;;;21230015;28;20180;-70
2022/06/22 11:58:28;;;;;;;0.20;0.00;;;26.60;99.90;;;;;;21229288;28;20195;-71
2022/06/22 12:08:58;;;;;;;0.20;0.03;;;26.90;99.90;;;;;;21228232;28;20219;-70
2022/06/22 12:19:14;;;;;;;0.20;0.00;;;28.20;99.90;;;;;;21229115;28;20226;-71
2022/06/22 12:29:49;;;;;;;0.20;0.00;;;29.00;99.90;;;;;;21230682;28;20241;-72
2022/06/22 12:39:57;;;;;;;0.20;0.00;;;29.20;99.90;;;;;;21228404;28;20198;-72
2022/06/22 12:50:23;;;;;;;0.20;0.00;;;29.30;99.90;;;;;;21227413;28;20239;-72
2022/06/22 13:00:28;;;;;;;0.20;0.00;;;28.00;99.90;;;;;;21224465;28;20199;-72
2022/06/22 13:10:37;;;;;;;0.20;0.00;;;29.00;99.90;;;;;;21227744;28;20241;-70
2022/06/22 13:20:57;;;;;;;0.20;0.00;;;30.90;99.90;;;;;;21226308;28;20254;-71
2022/06/22 13:31:09;;;;;;;0.20;0.00;;;31.30;99.90;;;;;;21223002;28;20290;-70
2022/06/22 13:41:27;;;;;;;0.20;0.00;;;31.70;99.90;;;;;;21223907;28;20191;-72
2022/06/22 13:51:50;;;;;;;0.20;0.00;;;29.00;99.90;;;;;;21222310;28;20242;-71
2022/06/22 14:02:03;;;;;;;0.20;0.00;;;29.70;99.90;;;;;;21219918;28;20187;-72
2022/06/22 14:12:14;;;;;;;0.28;0.20;;;29.00;99.90;;;;;;21220939;28;20226;-71
2022/06/22 14:22:22;;;;;;;0.20;0.00;;;30.50;99.90;;;;;;21220787;28;20244;-71
2022/06/22 14:32:42;;;;;;;0.20;0.00;;;31.00;99.90;;;;;;21221026;28;20219;-72
2022/06/22 14:42:51;;;;;;;0.20;0.10;;;31.80;99.90;;;;;;21220938;28;20195;-71
2022/06/22 14:53:06;;;;;;;0.20;0.00;;;31.60;99.90;;;;;;21218909;28;20235;-71
2022/06/22 15:03:33;;;;;;;0.20;0.00;;;33.10;99.90;;;;;;21218688;28;20202;-72
2022/06/22 15:13:47;;;;;;;0.20;0.00;;;32.20;99.90;;;;;;21215756;28;20275;-69
2022/06/22 15:23:57;;;;;;;0.20;0.00;;;32.40;99.90;;;;;;21217415;28;20287;-72
2022/06/22 15:34:26;;;;;;;0.20;0.00;;;32.10;99.90;;;;;;21218602;28;20297;-72
2022/06/22 15:44:35;;;;;;;0.20;0.00;;;30.40;99.90;;;;;;21231405;28;20197;-72
2022/06/22 15:54:52;;;;;;;0.20;0.00;;;30.20;99.90;;;;;;21230339;28;20241;-71
2022/06/22 16:05:01;;;;;;;0.20;0.00;;;32.40;99.90;;;;;;21231690;28;20882;-71
2022/06/22 16:15:19;;;;;;;0.20;0.00;;;31.70;99.90;;;;;;21229353;28;20280;-72
2022/06/22 16:25:26;;;;;;;0.20;0.00;;;32.60;99.90;;;;;;21227385;28;20247;-72
2022/06/22 16:35:46;;;;;;;0.20;0.00;;;31.80;99.90;;;;;;21225623;28;20309;-70
2022/06/22 16:45:57;;;;;;;0.20;0.00;;;32.10;99.90;;;;;;21223274;28;20179;-72
2022/06/22 16:56:04;;;;;;;0.20;0.00;;;31.80;99.90;;;;;;21222494;28;20282;-71
2022/06/22 17:06:13;;;;;;;0.20;0.00;;;31.20;99.90;;;;;;21223380;28;20299;-71
2022/06/22 17:16:23;;;;;;;0.20;0.00;;;31.50;99.90;;;;;;21218988;28;20258;-68
2022/06/22 17:26:33;;;;;;;0.20;0.00;;;31.10;99.90;;;;;;21221483;28;20195;-71
2022/06/22 17:36:56;;;;;;;0.20;0.00;;;32.40;99.90;;;;;;21222361;28;20244;-73
2022/06/22 17:47:11;;;;;;;0.20;0.00;;;31.80;99.90;;;;;;21219402;28;20201;-72
2022/06/22 17:57:21;;;;;;;0.20;0.00;;;31.50;99.90;;;;;;21219149;28;20310;-71
2022/06/22 18:07:28;;;;;;;0.20;0.00;;;31.20;99.90;;;;;;21217285;28;20203;-71
2022/06/22 18:17:34;;;;;;;0.20;0.00;;;29.20;99.90;;;;;;21219480;28;20253;-67
2022/06/22 18:27:43;;;;;;;0.20;0.00;;;29.20;99.90;;;;;;21216687;28;20243;-72
2022/06/22 18:37:54;;;;;;;0.20;0.00;;;28.90;99.90;;;;;;21216767;28;20238;-72
2022/06/22 18:48:06;;;;;;;0.20;0.00;;;28.50;99.90;;;;;;21220395;28;20285;-72
2022/06/22 18:58:18;;;;;;;0.20;0.00;;;27.90;99.90;;;;;;21218596;28;20219;-72
2022/06/22 19:08:24;;;;;;;0.20;0.00;;;26.70;99.90;;;;;;21215870;28;20218;-72
2022/06/22 19:18:44;;;;;;;0.20;0.00;;;26.00;99.90;;;;;;21230396;28;20243;-72
2022/06/22 19:28:56;;;;;;;0.20;0.00;;;25.70;99.90;;;;;;21230302;28;20190;-69
2022/06/22 19:39:10;;;;;;;0.20;0.00;;;25.40;99.90;;;;;;21234465;28;20214;-71
2022/06/22 19:49:22;;;;;;;0.20;0.00;;;25.30;99.90;;;;;;21232195;28;20206;-72
2022/06/22 19:59:29;;;;;;;0.20;0.00;;;25.10;99.90;;;;;;21232317;28;20214;-73
2022/06/22 20:09:46;;;;;;;0.20;0.00;;;24.90;99.90;;;;;;21232765;28;20219;-71
2022/06/22 20:19:51;;;;;;;0.20;0.10;;;24.70;99.90;;;;;;21230084;28;20238;-69
2022/06/22 20:30:03;;;;;;;0.20;0.00;;;24.60;99.90;;;;;;21230638;28;20249;-72
2022/06/22 20:40:11;;;;;;;0.20;0.00;;;24.50;99.90;;;;;;21229250;28;20202;-71
2022/06/22 20:50:24;;;;;;;0.20;0.00;;;24.40;99.90;;;;;;21230706;28;20223;-70
2022/06/22 21:00:31;;;;;;;0.20;0.00;;;24.40;99.90;;;;;;21230019;27;20191;-70
2022/06/22 21:10:37;;;;;;;0.20;0.00;;;24.30;99.90;;;;;;21225359;28;20219;-68
2022/06/22 21:20:55;;;;;;;0.20;0.00;;;24.20;99.90;;;;;;21228495;28;20243;-71
2022/06/22 21:31:08;;;;;;;0.20;0.00;;;24.30;99.90;;;;;;21227878;28;20274;-71
2022/06/22 21:41:41;;;;;;;0.20;0.10;;;24.10;99.90;;;;;;21226607;28;20195;-71
2022/06/22 21:51:49;;;;;;;0.20;0.00;;;24.10;99.90;;;;;;21225395;28;20239;-71
2022/06/22 22:02:01;;;;;;;0.20;0.00;;;23.40;99.90;;;;;;21224685;28;20202;-70
2022/06/22 22:12:08;;;;;;;0.20;0.00;;;23.40;99.90;;;;;;21224830;28;20211;-72
2022/06/22 22:22:21;;;;;;;0.20;0.00;;;23.10;99.90;;;;;;21222359;28;20227;-71
2022/06/22 22:32:24;;;;;;;0.20;0.00;;;23.10;99.90;;;;;;21223861;28;20214;-71
2022/06/22 22:42:31;;;;;;;0.20;0.00;;;22.90;99.90;;;;;;21224693;28;20199;-71
2022/06/22 22:52:39;;;;;;;0.20;0.00;;;23.00;99.90;;;;;;21235476;28;20222;-71
2022/06/22 23:02:57;;;;;;;0.20;0.00;;;22.70;99.90;;;;;;21241216;28;20211;-71
2022/06/22 23:13:02;;;;;;;0.20;0.00;;;22.50;99.90;;;;;;21240359;28;20705;-71
2022/06/22 23:23:13;;;;;;;0.20;0.00;;;22.40;99.90;;;;;;21238676;28;20227;-72
2022/06/22 23:33:22;;;;;;;0.20;0.00;;;22.40;99.90;;;;;;21238035;28;20242;-71
2022/06/22 23:43:30;;;;;;;0.20;0.00;;;22.50;99.90;;;;;;21238110;28;20294;-71
2022/06/22 23:53:39;;;;;;;0.20;0.00;;;22.30;99.90;;;;;;21234007;28;20235;-71
